createdAt,value
2023-05-23T00:04:06.956Z,9.52
2023-05-23T00:09:08.773Z,9.25
2023-05-23T00:14:15.000Z,9.02
2023-05-23T00:19:17.298Z,9.23
2023-05-23T00:24:20.399Z,9.65
2023-05-23T00:29:22.465Z,9.05
2023-05-23T00:34:25.099Z,9.07
2023-05-23T00:39:26.945Z,9.45
2023-05-23T00:44:29.958Z,10.10
2023-05-23T00:49:31.985Z,9.27
2023-05-23T00:54:34.577Z,9.50
2023-05-23T00:59:37.944Z,10.48
2023-05-23T01:04:40.294Z,8.93
2023-05-23T01:09:42.469Z,10.02
2023-05-23T01:15:10.955Z,9.70
2023-05-23T01:20:20.556Z,8.68
2023-05-23T01:25:28.852Z,9.65
2023-05-23T01:30:34.246Z,9.30
2023-05-23T01:35:37.545Z,9.70
2023-05-23T01:40:39.491Z,9.43
2023-05-23T01:45:42.348Z,9.52
2023-05-23T01:50:47.454Z,10.07
2023-05-23T01:55:51.052Z,10.38
2023-05-23T02:00:53.151Z,9.48
2023-05-23T02:05:54.981Z,10.20
2023-05-23T02:10:56.758Z,9.55
2023-05-23T02:15:58.586Z,9.73
2023-05-23T02:21:00.632Z,9.60
2023-05-23T02:26:02.602Z,10.38
2023-05-23T02:31:04.648Z,10.20
2023-05-23T02:36:07.241Z,10.25
2023-05-23T02:41:09.190Z,9.77
2023-05-23T02:46:13.616Z,9.93
2023-05-23T02:51:15.726Z,10.38
2023-05-23T02:56:17.648Z,10.75
2023-05-23T03:01:20.037Z,10.50
2023-05-23T03:06:22.593Z,10.50
2023-05-23T03:11:24.481Z,9.55
2023-05-23T03:16:26.417Z,10.15
2023-05-23T03:21:28.675Z,9.20
2023-05-23T03:26:30.983Z,10.70
2023-05-23T03:31:32.840Z,10.32
2023-05-23T03:36:35.822Z,10.55
2023-05-23T03:41:38.282Z,10.20
2023-05-23T03:46:40.637Z,9.45
2023-05-23T03:51:43.071Z,9.35
2023-05-23T03:56:49.367Z,9.68
2023-05-23T04:01:51.403Z,9.95
2023-05-23T04:06:54.010Z,10.18
2023-05-23T04:11:56.031Z,10.82
2023-05-23T04:16:58.998Z,10.15
2023-05-23T04:22:00.928Z,10.32
2023-05-23T04:27:03.658Z,10.77
2023-05-23T04:32:06.385Z,11.13
2023-05-23T04:37:09.227Z,10.35
2023-05-23T04:42:12.353Z,10.70
2023-05-23T04:47:37.108Z,10.75
2023-05-23T04:52:43.030Z,11.35
2023-05-23T04:57:45.415Z,10.80
2023-05-23T05:02:47.439Z,10.15
2023-05-23T05:07:51.156Z,10.45
2023-05-23T05:12:54.598Z,10.65
2023-05-23T05:17:57.720Z,12.57
2023-05-23T05:22:59.662Z,12.13
2023-05-23T05:28:06.327Z,12.50
2023-05-23T05:33:15.922Z,13.07
2023-05-23T05:38:18.483Z,13.13
2023-05-23T05:43:22.468Z,12.82
2023-05-23T05:48:24.346Z,11.85
2023-05-23T05:53:28.647Z,13.10
2023-05-23T05:58:30.755Z,11.85
2023-05-23T06:03:42.936Z,12.68
2023-05-23T06:08:45.321Z,12.73
2023-05-23T06:13:51.041Z,12.80
2023-05-23T06:18:53.883Z,12.93
2023-05-23T06:23:57.203Z,14.35
2023-05-23T06:29:00.365Z,16.77
2023-05-23T06:34:02.699Z,13.02
2023-05-23T06:39:04.654Z,14.52
2023-05-23T06:44:06.447Z,15.15
2023-05-23T06:54:15.850Z,15.05
2023-05-23T06:59:19.823Z,13.68
2023-05-23T07:04:21.984Z,14.10
2023-05-23T07:09:24.580Z,12.60
2023-05-23T07:14:32.312Z,13.88
2023-05-23T07:19:34.617Z,14.25
2023-05-23T07:24:37.235Z,15.43
2023-05-23T07:29:41.139Z,15.32
2023-05-23T07:34:45.081Z,13.90
2023-05-23T07:39:47.307Z,13.68
2023-05-23T07:44:49.236Z,15.13
2023-05-23T07:49:52.255Z,15.15
2023-05-23T07:54:55.032Z,13.85
2023-05-23T07:59:57.090Z,13.13
2023-05-23T08:05:00.445Z,14.43
2023-05-23T08:10:02.435Z,14.85
2023-05-23T08:15:04.861Z,12.50
2023-05-23T08:20:13.556Z,12.93
2023-05-23T08:25:16.146Z,14.52
2023-05-23T08:30:18.250Z,13.07
2023-05-23T08:35:20.473Z,13.45
2023-05-23T08:40:23.129Z,14.93
2023-05-23T08:45:43.344Z,13.60
2023-05-23T08:50:47.641Z,14.93
2023-05-23T08:55:51.727Z,15.48
2023-05-23T09:00:55.519Z,12.70
2023-05-23T09:05:59.306Z,13.68
2023-05-23T09:11:04.727Z,14.50
2023-05-23T09:16:12.767Z,13.20
2023-05-23T09:21:34.982Z,13.82
2023-05-23T09:26:49.752Z,11.88
2023-05-23T09:31:51.824Z,13.05
2023-05-23T09:36:55.497Z,12.00
2023-05-23T09:42:01.139Z,12.52
2023-05-23T09:47:06.984Z,12.70
2023-05-23T09:52:08.846Z,13.43
2023-05-23T09:57:11.481Z,11.15
2023-05-23T10:02:16.081Z,10.65
2023-05-23T10:07:23.438Z,10.77
2023-05-23T10:12:37.051Z,9.90
2023-05-23T10:17:53.791Z,9.63
2023-05-23T10:22:56.774Z,9.50
2023-05-23T10:28:01.638Z,12.45
2023-05-23T10:33:06.131Z,9.88
2023-05-23T10:38:36.646Z,9.43
2023-05-23T10:44:02.275Z,8.35
2023-05-23T10:49:08.768Z,8.68
2023-05-23T10:54:13.398Z,9.70
2023-05-23T10:59:22.918Z,8.60
2023-05-23T11:04:28.989Z,9.18
2023-05-23T11:09:30.880Z,8.75
2023-05-23T11:14:32.893Z,10.75
2023-05-23T11:19:34.783Z,10.07
2023-05-23T11:24:53.988Z,9.20
2023-05-23T11:30:00.259Z,9.30
2023-05-23T11:35:03.957Z,9.07
2023-05-23T11:40:26.370Z,8.73
2023-05-23T11:45:29.206Z,9.77
2023-05-23T11:50:31.007Z,8.32
2023-05-23T11:55:32.867Z,8.25
2023-05-23T12:00:34.693Z,9.70
2023-05-23T12:05:36.460Z,8.82
2023-05-23T12:10:56.748Z,9.90
2023-05-23T12:16:02.546Z,10.15
2023-05-23T12:21:08.239Z,10.07
2023-05-23T12:26:10.599Z,9.45
2023-05-23T12:31:12.955Z,9.38
2023-05-23T12:36:15.805Z,9.23
2023-05-23T12:41:22.490Z,9.52
2023-05-23T12:46:27.051Z,9.77
2023-05-23T12:51:29.087Z,8.80
2023-05-23T12:56:31.466Z,8.32
2023-05-23T13:01:34.446Z,7.78
2023-05-23T13:06:36.311Z,8.27
2023-05-23T13:11:38.224Z,7.80
2023-05-23T13:16:40.637Z,7.65
2023-05-23T13:21:43.466Z,7.47
2023-05-23T13:26:45.401Z,7.43
2023-05-23T13:31:47.540Z,7.82
2023-05-23T13:36:49.374Z,7.63
2023-05-23T13:41:51.215Z,8.20
2023-05-23T13:46:53.179Z,7.75
2023-05-23T13:51:55.032Z,7.55
2023-05-23T13:56:56.790Z,7.50
2023-05-23T14:01:58.641Z,8.07
2023-05-23T14:07:00.498Z,7.45
2023-05-23T14:12:02.318Z,7.70
2023-05-23T14:17:04.441Z,7.45
2023-05-23T14:22:06.339Z,7.13
2023-05-23T14:27:10.848Z,7.75
2023-05-23T14:32:13.677Z,7.03
2023-05-23T14:37:15.870Z,7.80
2023-05-23T14:42:17.666Z,7.45
2023-05-23T14:47:19.855Z,7.30
2023-05-23T14:52:21.669Z,7.70
2023-05-23T14:57:23.945Z,7.28
2023-05-23T15:02:25.800Z,7.28
2023-05-23T15:07:27.669Z,7.35
2023-05-23T15:12:29.513Z,7.25
2023-05-23T15:17:33.349Z,7.05
2023-05-23T15:22:38.532Z,6.75
2023-05-23T15:27:41.044Z,6.00
2023-05-23T15:32:42.853Z,6.10
2023-05-23T15:37:45.118Z,5.68
2023-05-23T15:42:47.019Z,4.32
2023-05-23T15:47:48.824Z,4.20
2023-05-23T15:52:50.701Z,3.65
2023-05-23T15:57:52.468Z,3.20
2023-05-23T16:02:54.346Z,3.00
2023-05-23T16:07:56.289Z,3.33
2023-05-23T16:12:58.049Z,2.78
2023-05-23T16:18:00.072Z,2.38
2023-05-23T16:23:02.009Z,2.63
2023-05-23T16:28:03.835Z,2.60
2023-05-23T16:33:05.726Z,2.53
2023-05-23T16:38:07.611Z,2.65
2023-05-23T16:43:09.424Z,2.70
2023-05-23T16:48:11.380Z,3.10
2023-05-23T16:53:13.290Z,2.63
2023-05-23T16:58:15.337Z,2.85
2023-05-23T17:03:17.315Z,2.60
2023-05-23T17:08:19.565Z,2.72
2023-05-23T17:13:21.527Z,3.40
2023-05-23T17:18:23.426Z,2.75
2023-05-23T17:23:25.793Z,2.88
2023-05-23T17:28:27.645Z,3.08
2023-05-23T17:33:29.418Z,3.10
2023-05-23T17:38:31.326Z,3.40
2023-05-23T17:43:33.179Z,3.20
2023-05-23T17:48:46.471Z,3.00
2023-05-23T17:53:53.425Z,2.60
2023-05-23T17:58:55.275Z,3.22
2023-05-23T18:03:57.293Z,3.20
2023-05-23T18:08:59.140Z,3.47
2023-05-23T18:14:01.140Z,3.33
2023-05-23T18:19:03.189Z,3.90
2023-05-23T18:24:05.280Z,4.25
2023-05-23T18:29:07.164Z,4.00
2023-05-23T18:34:09.831Z,3.80
2023-05-23T18:39:11.641Z,3.80
2023-05-23T18:44:13.638Z,3.72
2023-05-23T18:49:15.656Z,4.03
2023-05-23T18:54:18.311Z,4.00
2023-05-23T18:59:20.888Z,3.75
2023-05-23T19:04:22.748Z,4.00
2023-05-23T19:09:24.570Z,3.72
2023-05-23T19:14:26.502Z,3.83
2023-05-23T19:19:30.581Z,4.03
2023-05-23T19:24:33.941Z,3.92
2023-05-23T19:29:35.869Z,3.78
2023-05-23T19:34:37.779Z,4.05
2023-05-23T19:39:45.506Z,4.35
2023-05-23T19:44:47.346Z,3.80
2023-05-23T19:49:49.202Z,4.32
2023-05-23T19:54:51.550Z,3.97
2023-05-23T19:59:53.361Z,4.10
2023-05-23T20:04:55.137Z,4.32
2023-05-23T20:09:56.958Z,4.32
2023-05-23T20:14:58.785Z,4.03
2023-05-23T20:20:00.747Z,4.35
2023-05-23T20:25:02.996Z,4.43
2023-05-23T20:30:05.375Z,4.32
2023-05-23T20:35:07.776Z,4.30
2023-05-23T20:40:10.295Z,4.07
2023-05-23T20:45:12.184Z,4.55
2023-05-23T20:50:14.774Z,4.75
2023-05-23T20:55:17.244Z,4.18
2023-05-23T21:00:21.461Z,4.85
2023-05-23T21:05:23.386Z,4.68
2023-05-23T21:10:25.776Z,4.35
2023-05-23T21:15:27.704Z,4.68
2023-05-23T21:20:29.680Z,4.78
2023-05-23T21:25:31.650Z,5.00
2023-05-23T21:30:33.543Z,4.57
2023-05-23T21:35:37.896Z,4.85
2023-05-23T21:40:39.843Z,5.28
2023-05-23T21:45:41.837Z,4.50
2023-05-23T21:50:43.913Z,4.60
2023-05-23T21:55:46.105Z,5.15
2023-05-23T22:00:47.936Z,4.43
2023-05-23T22:05:49.750Z,4.43
2023-05-23T22:10:51.636Z,4.10
2023-05-23T22:15:53.788Z,4.38
2023-05-23T22:20:55.681Z,4.35
2023-05-23T22:25:57.661Z,4.18
2023-05-23T22:30:59.464Z,4.55
2023-05-23T22:36:01.504Z,3.65
2023-05-23T22:41:03.860Z,4.22
2023-05-23T22:46:05.964Z,3.85
2023-05-23T22:51:09.712Z,4.05
2023-05-23T22:56:11.747Z,4.03
2023-05-23T23:01:13.741Z,3.60
2023-05-23T23:06:15.673Z,3.97
2023-05-23T23:11:17.612Z,3.30
2023-05-23T23:16:19.484Z,3.50
2023-05-23T23:21:21.300Z,3.22
2023-05-23T23:26:23.123Z,3.00
2023-05-23T23:31:24.967Z,2.80
2023-05-23T23:36:26.790Z,2.60
2023-05-23T23:41:28.620Z,2.78
2023-05-23T23:46:31.241Z,2.72
2023-05-23T23:51:33.242Z,2.30
2023-05-23T23:56:35.099Z,2.08
